createdAt,value
2019-03-29T00:03:47.681Z,5.40
2019-03-29T00:08:40.195Z,5.30
2019-03-29T00:13:32.669Z,5.30
2019-03-29T00:18:25.241Z,5.30
2019-03-29T00:23:17.779Z,5.20
2019-03-29T00:28:11.001Z,5.20
2019-03-29T00:33:03.620Z,5.00
2019-03-29T00:37:56.127Z,4.90
2019-03-29T00:42:49.097Z,4.80
2019-03-29T00:47:41.614Z,4.70
2019-03-29T00:52:34.181Z,4.60
2019-03-29T00:57:26.565Z,4.60
2019-03-29T01:02:19.457Z,4.50
2019-03-29T01:07:12.057Z,4.40
2019-03-29T01:12:04.566Z,4.40
2019-03-29T01:16:57.466Z,4.40
2019-03-29T01:21:49.933Z,4.40
2019-03-29T01:26:42.266Z,4.40
2019-03-29T01:31:34.596Z,4.40
2019-03-29T01:36:27.885Z,4.20
2019-03-29T01:41:20.663Z,4.10
2019-03-29T01:46:13.092Z,4.00
2019-03-29T01:51:05.907Z,3.90
2019-03-29T01:55:58.378Z,3.90
2019-03-29T02:00:50.780Z,3.90
2019-03-29T02:05:43.068Z,3.90
2019-03-29T02:10:35.921Z,3.90
2019-03-29T02:15:28.325Z,3.80
2019-03-29T02:20:20.770Z,3.80
2019-03-29T02:25:13.505Z,3.70
2019-03-29T02:30:07.410Z,3.60
2019-03-29T02:34:59.733Z,3.60
2019-03-29T02:39:52.234Z,3.60
2019-03-29T02:44:44.608Z,3.50
2019-03-29T02:49:37.485Z,3.50
2019-03-29T02:54:29.726Z,3.40
2019-03-29T02:59:22.358Z,3.40
2019-03-29T03:04:14.778Z,3.40
2019-03-29T03:09:14.147Z,3.40
2019-03-29T03:14:01.491Z,3.30
2019-03-29T03:18:54.172Z,3.30
2019-03-29T03:23:46.631Z,3.30
2019-03-29T03:28:39.490Z,3.20
2019-03-29T03:33:31.847Z,3.10
2019-03-29T03:38:24.558Z,3.10
2019-03-29T03:43:17.055Z,3.10
2019-03-29T03:48:09.172Z,3.00
2019-03-29T03:53:01.871Z,3.00
2019-03-29T03:57:57.648Z,2.90
2019-03-29T04:02:48.660Z,3.00
2019-03-29T04:07:40.999Z,3.00
2019-03-29T04:12:33.545Z,2.90
2019-03-29T04:17:26.350Z,2.80
2019-03-29T04:22:19.171Z,2.80
2019-03-29T04:27:11.750Z,2.70
2019-03-29T04:32:04.504Z,2.80
2019-03-29T04:36:57.177Z,2.80
2019-03-29T04:41:49.697Z,2.70
2019-03-29T04:46:42.085Z,2.60
2019-03-29T04:51:34.741Z,2.60
2019-03-29T04:56:27.624Z,2.50
2019-03-29T05:01:20.091Z,2.50
2019-03-29T05:06:12.725Z,2.50
2019-03-29T05:11:05.417Z,2.50
2019-03-29T05:15:58.341Z,2.60
2019-03-29T05:20:50.849Z,2.50
2019-03-29T05:25:43.109Z,2.50
2019-03-29T05:30:35.730Z,2.50
2019-03-29T05:35:28.416Z,2.50
2019-03-29T05:40:34.040Z,2.50
2019-03-29T05:45:15.169Z,2.60
2019-03-29T05:50:08.384Z,2.70
2019-03-29T05:55:01.653Z,2.80
2019-03-29T05:59:54.221Z,2.90
2019-03-29T06:04:46.867Z,3.10
2019-03-29T06:09:40.257Z,3.30
2019-03-29T06:14:32.792Z,3.50
2019-03-29T06:19:25.097Z,3.70
2019-03-29T06:24:17.337Z,4.00
2019-03-29T06:29:10.018Z,4.30
2019-03-29T06:34:02.295Z,4.70
2019-03-29T06:38:56.425Z,5.10
2019-03-29T06:43:48.917Z,5.50
2019-03-29T06:48:41.494Z,5.90
2019-03-29T06:53:33.804Z,6.40
2019-03-29T06:58:26.270Z,6.80
2019-03-29T07:03:18.616Z,7.40
2019-03-29T07:08:11.193Z,7.90
2019-03-29T07:13:03.682Z,8.50
2019-03-29T07:17:56.313Z,9.10
2019-03-29T07:22:48.852Z,9.70
2019-03-29T07:27:45.821Z,10.30
2019-03-29T07:32:35.241Z,11.00
2019-03-29T07:37:28.034Z,12.30
2019-03-29T07:42:20.690Z,14.30
2019-03-29T07:47:13.395Z,16.30
2019-03-29T07:52:06.141Z,17.70
2019-03-29T07:56:58.501Z,18.70
2019-03-29T08:01:51.277Z,18.50
2019-03-29T08:06:46.475Z,19.10
2019-03-29T08:11:46.104Z,19.90
2019-03-29T08:16:32.003Z,20.10
2019-03-29T08:21:24.423Z,20.90
2019-03-29T08:26:16.712Z,22.20
2019-03-29T08:31:09.413Z,21.40
2019-03-29T08:36:02.130Z,20.40
2019-03-29T08:40:54.942Z,20.20
2019-03-29T08:45:47.587Z,21.40
2019-03-29T08:50:40.082Z,20.80
2019-03-29T08:55:45.191Z,20.40
2019-03-29T09:00:30.874Z,20.50
2019-03-29T09:05:23.346Z,20.30
2019-03-29T09:10:26.842Z,20.70
2019-03-29T09:15:18.865Z,21.30
2019-03-29T09:20:11.397Z,21.10
2019-03-29T09:25:04.437Z,21.50
2019-03-29T09:29:56.773Z,22.10
2019-03-29T09:34:49.320Z,22.80
2019-03-29T09:39:41.721Z,22.20
2019-03-29T09:44:34.389Z,24.10
2019-03-29T09:49:26.977Z,25.40
2019-03-29T09:54:20.559Z,25.10
2019-03-29T09:59:16.224Z,26.30
2019-03-29T10:04:06.821Z,25.50
2019-03-29T10:08:59.337Z,25.70
2019-03-29T10:13:51.829Z,25.90
2019-03-29T10:18:44.253Z,25.50
2019-03-29T10:23:37.113Z,24.80
2019-03-29T10:28:29.935Z,25.40
2019-03-29T10:33:22.810Z,25.80
2019-03-29T10:38:18.175Z,24.90
2019-03-29T10:43:09.546Z,24.90
2019-03-29T10:48:01.958Z,25.80
2019-03-29T10:52:54.792Z,25.90
2019-03-29T10:57:47.485Z,26.40
2019-03-29T11:02:40.005Z,27.30
2019-03-29T11:07:32.816Z,27.10
2019-03-29T11:12:25.453Z,26.40
2019-03-29T11:17:17.972Z,25.90
2019-03-29T11:22:10.650Z,25.10
2019-03-29T11:27:03.266Z,25.40
2019-03-29T11:31:55.990Z,26.10
2019-03-29T11:36:48.607Z,25.80
2019-03-29T11:41:41.211Z,26.20
2019-03-29T11:46:33.925Z,27.20
2019-03-29T11:51:26.686Z,27.70
2019-03-29T11:56:19.121Z,26.60
2019-03-29T12:01:12.799Z,26.40
2019-03-29T12:06:05.429Z,26.10
2019-03-29T12:10:57.860Z,26.00
2019-03-29T12:15:50.668Z,25.60
2019-03-29T12:20:43.529Z,25.90
2019-03-29T12:25:35.993Z,26.10
2019-03-29T12:30:31.829Z,26.40
2019-03-29T12:35:22.417Z,26.60
2019-03-29T12:40:14.918Z,26.10
2019-03-29T12:45:07.721Z,25.70
2019-03-29T12:50:00.415Z,25.60
2019-03-29T12:54:53.076Z,25.60
2019-03-29T12:59:45.682Z,25.60
2019-03-29T13:04:38.014Z,25.90
2019-03-29T13:09:30.401Z,26.00
2019-03-29T13:14:22.914Z,25.40
2019-03-29T13:19:15.768Z,24.90
2019-03-29T13:24:08.409Z,25.00
2019-03-29T13:29:01.103Z,25.30
2019-03-29T13:33:53.533Z,25.50
2019-03-29T13:38:46.253Z,25.20
2019-03-29T13:43:38.860Z,24.70
2019-03-29T13:48:31.542Z,24.50
2019-03-29T13:53:24.045Z,24.90
2019-03-29T13:58:16.661Z,25.50
2019-03-29T14:03:09.266Z,25.40
2019-03-29T14:08:01.505Z,25.20
2019-03-29T14:12:54.358Z,24.70
2019-03-29T14:17:46.728Z,24.30
2019-03-29T14:22:39.111Z,24.10
2019-03-29T14:27:31.736Z,23.10
2019-03-29T14:32:24.273Z,22.40
2019-03-29T14:37:16.634Z,22.00
2019-03-29T14:42:12.404Z,21.70
2019-03-29T14:47:03.253Z,21.20
2019-03-29T14:51:55.868Z,21.00
2019-03-29T14:56:48.181Z,20.80
2019-03-29T15:01:40.628Z,20.60
2019-03-29T15:06:33.639Z,20.30
2019-03-29T15:11:26.345Z,20.00
2019-03-29T15:16:18.994Z,20.00
2019-03-29T15:21:11.597Z,19.90
2019-03-29T15:26:04.446Z,19.60
2019-03-29T15:30:56.890Z,19.60
2019-03-29T15:35:49.430Z,19.30
2019-03-29T15:40:44.093Z,19.20
2019-03-29T15:45:36.781Z,19.10
2019-03-29T15:50:29.162Z,19.00
2019-03-29T15:55:21.447Z,18.80
2019-03-29T16:00:14.394Z,18.50
2019-03-29T16:05:07.561Z,18.50
2019-03-29T16:10:00.383Z,18.30
2019-03-29T16:14:52.771Z,18.20
2019-03-29T16:19:45.465Z,18.10
2019-03-29T16:24:37.937Z,18.10
2019-03-29T16:29:30.529Z,18.00
2019-03-29T16:34:22.953Z,18.00
2019-03-29T16:39:15.677Z,17.90
2019-03-29T16:44:08.034Z,17.80
2019-03-29T16:49:00.421Z,17.70
2019-03-29T16:53:52.882Z,17.50
2019-03-29T16:58:45.538Z,17.30
2019-03-29T17:03:38.208Z,17.20
2019-03-29T17:08:30.954Z,17.10
2019-03-29T17:13:23.832Z,17.00
2019-03-29T17:18:28.749Z,16.90
2019-03-29T17:23:10.697Z,16.70
2019-03-29T17:28:03.458Z,16.60
2019-03-29T17:32:56.221Z,16.40
2019-03-29T17:37:49.013Z,16.30
2019-03-29T17:42:41.556Z,16.20
2019-03-29T17:47:33.977Z,16.10
2019-03-29T17:52:26.845Z,15.90
2019-03-29T17:57:19.140Z,15.70
2019-03-29T18:02:11.926Z,15.60
2019-03-29T18:07:04.573Z,15.40
2019-03-29T18:11:57.227Z,15.10
2019-03-29T18:16:49.990Z,14.90
2019-03-29T18:21:42.449Z,14.60
2019-03-29T18:26:34.572Z,14.30
2019-03-29T18:31:26.965Z,14.00
2019-03-29T18:36:19.865Z,13.60
2019-03-29T18:41:12.382Z,13.30
2019-03-29T18:46:05.120Z,13.10
2019-03-29T18:50:57.605Z,12.90
2019-03-29T18:55:50.398Z,12.60
2019-03-29T19:00:42.815Z,12.40
2019-03-29T19:05:35.860Z,12.20
2019-03-29T19:10:28.754Z,11.90
2019-03-29T19:15:21.465Z,11.60
2019-03-29T19:20:26.744Z,11.30
2019-03-29T19:25:08.733Z,11.20
2019-03-29T19:30:01.231Z,11.10
2019-03-29T19:34:53.844Z,11.00
2019-03-29T19:39:46.257Z,10.90
2019-03-29T19:44:38.920Z,10.70
2019-03-29T19:49:31.496Z,10.40
2019-03-29T19:54:24.206Z,10.20
2019-03-29T19:59:16.539Z,10.20
2019-03-29T20:04:10.377Z,10.00
2019-03-29T20:09:03.582Z,9.90
2019-03-29T20:13:55.958Z,9.80
2019-03-29T20:18:48.489Z,9.60
2019-03-29T20:23:41.149Z,9.50
2019-03-29T20:28:33.734Z,9.30
2019-03-29T20:33:26.277Z,9.20
2019-03-29T20:38:18.597Z,9.00
2019-03-29T20:43:11.377Z,8.90
2019-03-29T20:48:03.841Z,8.80
2019-03-29T20:52:56.382Z,8.60
2019-03-29T20:57:51.402Z,8.40
2019-03-29T21:02:43.578Z,8.40
2019-03-29T21:07:36.370Z,8.30
2019-03-29T21:12:30.472Z,8.30
2019-03-29T21:17:22.396Z,8.10
2019-03-29T21:22:15.188Z,8.00
2019-03-29T21:27:07.638Z,7.80
2019-03-29T21:32:00.496Z,7.70
2019-03-29T21:36:52.718Z,7.60
2019-03-29T21:41:45.413Z,7.60
2019-03-29T21:46:39.509Z,7.40
2019-03-29T21:51:32.197Z,7.30
2019-03-29T21:56:26.953Z,7.20
2019-03-29T22:01:19.612Z,7.10
2019-03-29T22:06:12.474Z,6.90
2019-03-29T22:11:05.763Z,6.80
2019-03-29T22:15:58.193Z,6.70
2019-03-29T22:20:50.945Z,6.80
2019-03-29T22:25:43.443Z,6.80
2019-03-29T22:30:36.089Z,6.60
2019-03-29T22:35:28.505Z,6.50
2019-03-29T22:40:21.413Z,6.30
2019-03-29T22:45:14.743Z,6.30
2019-03-29T22:50:08.252Z,6.30
2019-03-29T22:55:00.474Z,6.30
2019-03-29T22:59:52.821Z,6.10
2019-03-29T23:04:45.145Z,6.00
2019-03-29T23:09:37.597Z,5.90
2019-03-29T23:14:49.409Z,5.80
2019-03-29T23:19:41.760Z,5.80
2019-03-29T23:24:34.422Z,5.70
2019-03-29T23:29:26.964Z,5.70
2019-03-29T23:34:19.176Z,5.60
2019-03-29T23:39:32.613Z,5.50
2019-03-29T23:44:25.177Z,5.50
2019-03-29T23:49:21.215Z,5.40
2019-03-29T23:54:12.132Z,5.50
2019-03-29T23:59:04.632Z,5.40
